Time;durP1;ratioP1;P1;durP2;ratioP2;P2;SDS_P1;SDS_P2;PMS_P1;PMS_P2;Temp;Humidity;BMP_temperature;BMP_pressure;BME280_temperature;BME280_humidity;BME280_pressure;Samples;Min_cycle;Max_cycle;Signal;HPM_P1;HPM_P2
2022/08/14 00:00:12;;;;;;;10.18;9.10;;;21.00;99.90;;;;;;4994199;28;20030;-76
2022/08/14 00:02:39;;;;;;;10.88;8.55;;;21.00;99.90;;;;;;4978540;28;20076;-77
2022/08/14 00:05:07;;;;;;;10.68;9.38;;;21.00;99.90;;;;;;4993618;28;20030;-77
2022/08/14 00:07:34;;;;;;;15.02;9.80;;;20.90;99.90;;;;;;4984997;28;20034;-77
2022/08/14 00:10:02;;;;;;;10.23;9.00;;;20.90;99.90;;;;;;4994126;28;20120;-77
2022/08/14 00:12:27;;;;;;;10.82;9.07;;;20.90;99.90;;;;;;4993819;28;20057;-76
2022/08/14 00:14:53;;;;;;;10.27;9.03;;;20.90;99.90;;;;;;5011384;28;20072;-76
2022/08/14 00:17:19;;;;;;;11.53;9.87;;;20.80;99.90;;;;;;4993933;28;20030;-77
2022/08/14 00:19:45;;;;;;;10.50;8.97;;;20.80;99.90;;;;;;5011008;28;20029;-77
2022/08/14 00:22:14;;;;;;;11.53;9.37;;;20.80;99.90;;;;;;5011479;28;20032;-77
2022/08/14 00:24:40;;;;;;;10.68;9.07;;;20.80;99.90;;;;;;5011239;28;20092;-77
2022/08/14 00:27:05;;;;;;;11.60;9.70;;;20.80;99.90;;;;;;4993885;28;20029;-77
2022/08/14 00:29:31;;;;;;;11.80;9.20;;;20.80;99.90;;;;;;4993555;28;20033;-76
2022/08/14 00:31:57;;;;;;;14.03;9.87;;;20.80;99.90;;;;;;4986678;28;20030;-76
2022/08/14 00:34:23;;;;;;;12.17;9.87;;;20.70;99.90;;;;;;5016895;28;20500;-76
2022/08/14 00:36:49;;;;;;;12.02;9.43;;;20.70;99.90;;;;;;4982997;28;22541;-76
2022/08/14 00:39:15;;;;;;;10.90;9.67;;;20.70;99.90;;;;;;4987726;28;20065;-77
2022/08/14 00:41:41;;;;;;;10.23;9.00;;;20.70;99.90;;;;;;4993636;28;20021;-77
2022/08/14 00:44:06;;;;;;;10.68;9.38;;;20.70;99.90;;;;;;5001533;28;20050;-77
2022/08/14 00:46:32;;;;;;;12.23;9.33;;;20.60;99.90;;;;;;5011335;28;20037;-77
2022/08/14 00:48:58;;;;;;;11.10;9.63;;;20.60;99.90;;;;;;4990132;28;20486;-77
2022/08/14 00:51:24;;;;;;;11.87;9.63;;;20.60;99.90;;;;;;5008429;28;20445;-77
2022/08/14 00:53:50;;;;;;;12.17;9.63;;;20.50;99.90;;;;;;5009687;28;20165;-77
2022/08/14 00:56:17;;;;;;;12.67;10.10;;;20.60;99.90;;;;;;5011237;28;20700;-77
2022/08/14 00:58:43;;;;;;;11.32;9.98;;;20.50;99.90;;;;;;4993760;28;20022;-77
2022/08/14 01:01:10;;;;;;;12.30;9.57;;;20.50;99.90;;;;;;5012153;28;20048;-77
2022/08/14 01:03:38;;;;;;;12.50;9.95;;;20.50;99.90;;;;;;4997328;28;20022;-77
2022/08/14 01:06:08;;;;;;;15.18;11.32;;;20.40;99.90;;;;;;4997457;28;20036;-76
2022/08/14 01:08:36;;;;;;;11.95;10.32;;;20.40;99.90;;;;;;4997605;28;20030;-76
2022/08/14 01:11:02;;;;;;;14.13;10.52;;;20.30;99.90;;;;;;4997557;28;20500;-77
2022/08/14 01:13:34;;;;;;;11.30;10.10;;;20.30;99.90;;;;;;4996485;28;20101;-77
2022/08/14 01:16:03;;;;;;;13.82;10.40;;;20.30;99.90;;;;;;4997739;28;20040;-77
2022/08/14 01:21:16;;;;;;;12.20;10.18;;;20.20;99.90;;;;;;4999923;28;20029;-77
2022/08/14 01:23:45;;;;;;;12.35;10.18;;;20.20;99.90;;;;;;5014467;28;20034;-77
2022/08/14 01:26:11;;;;;;;13.52;10.48;;;20.10;99.90;;;;;;5014453;28;20101;-77
2022/08/14 01:28:38;;;;;;;13.10;11.02;;;20.10;99.90;;;;;;4997345;28;20022;-76
2022/08/14 01:31:25;;;;;;;15.48;10.35;;;20.10;99.90;;;;;;4989609;28;20486;-77
2022/08/14 01:33:52;;;;;;;13.98;10.48;;;20.10;99.90;;;;;;4977243;28;20089;-76
2022/08/14 01:36:19;;;;;;;12.40;10.82;;;20.10;99.90;;;;;;4961894;28;20026;-76
2022/08/14 01:38:47;;;;;;;12.48;9.90;;;20.00;99.90;;;;;;4961415;28;20088;-76
2022/08/14 01:41:19;;;;;;;12.48;9.40;;;20.00;99.90;;;;;;4961884;28;20030;-76
2022/08/14 01:44:14;;;;;;;12.75;9.82;;;20.00;99.90;;;;;;4962415;28;20037;-76
2022/08/14 01:46:43;;;;;;;11.93;9.50;;;20.00;99.90;;;;;;4977763;28;20063;-76
2022/08/14 01:49:11;;;;;;;14.00;10.30;;;19.90;99.90;;;;;;4961620;28;20026;-77
2022/08/14 01:51:38;;;;;;;10.55;8.48;;;19.90;99.90;;;;;;4961478;28;20065;-77
2022/08/14 01:54:12;;;;;;;11.88;8.75;;;19.90;99.90;;;;;;4962342;28;20085;-77
2022/08/14 01:56:38;;;;;;;9.23;7.85;;;19.80;99.90;;;;;;4996642;28;20501;-77
2022/08/14 01:59:30;;;;;;;12.37;8.97;;;19.80;99.90;;;;;;4996364;28;20033;-77
2022/08/14 02:01:57;;;;;;;12.32;8.93;;;19.80;99.90;;;;;;4981280;28;20461;-77
2022/08/14 02:04:31;;;;;;;9.85;7.90;;;19.80;99.90;;;;;;4996464;28;20030;-76
2022/08/14 02:06:57;;;;;;;11.70;9.02;;;19.70;99.90;;;;;;4981041;28;20109;-76
2022/08/14 02:09:23;;;;;;;11.05;8.23;;;19.70;99.90;;;;;;4996318;28;20105;-76
2022/08/14 02:11:49;;;;;;;10.90;8.30;;;19.60;99.90;;;;;;4996535;28;20129;-77
2022/08/14 02:14:16;;;;;;;11.98;8.80;;;19.60;99.90;;;;;;4994229;28;20292;-76
2022/08/14 02:16:51;;;;;;;;;;;19.60;99.90;;;;;;5014245;28;20033;-77
2022/08/14 02:19:20;;;;;;;9.82;8.13;;;19.50;99.90;;;;;;4989901;28;19913;-77
2022/08/14 02:21:47;;;;;;;10.48;8.05;;;19.50;99.90;;;;;;4996937;28;20554;-76
2022/08/14 02:24:13;;;;;;;10.88;8.73;;;19.40;99.90;;;;;;4979685;28;20076;-76
2022/08/14 02:26:41;;;;;;;9.93;8.17;;;19.40;99.90;;;;;;4987417;28;20553;-76
2022/08/14 02:29:12;;;;;;;10.10;8.55;;;19.40;99.90;;;;;;4978875;28;20277;-76
2022/08/14 02:31:41;;;;;;;9.80;8.60;;;19.40;99.90;;;;;;4995871;28;20018;-76
2022/08/14 02:34:36;;;;;;;11.48;8.45;;;19.30;99.90;;;;;;4996061;28;20041;-76
2022/08/14 02:37:09;;;;;;;11.27;8.52;;;19.30;99.90;;;;;;4991089;28;20046;-76
2022/08/14 02:39:41;;;;;;;9.48;8.30;;;19.30;99.90;;;;;;5012939;28;20029;-76
2022/08/14 02:42:09;;;;;;;11.95;9.02;;;19.20;99.90;;;;;;4980393;28;20022;-76
2022/08/14 02:44:35;;;;;;;10.18;8.63;;;19.20;99.90;;;;;;4996302;28;20030;-76
2022/08/14 02:47:01;;;;;;;12.13;9.10;;;19.20;99.90;;;;;;4996362;28;20092;-76
2022/08/14 02:49:27;;;;;;;12.55;9.77;;;19.20;99.90;;;;;;4997062;28;20117;-76
2022/08/14 02:51:56;;;;;;;15.10;10.47;;;19.20;99.90;;;;;;4980808;28;20032;-76
2022/08/14 02:54:23;;;;;;;10.60;9.15;;;19.20;99.90;;;;;;5014323;28;20292;-76
2022/08/14 02:56:49;;;;;;;13.30;9.93;;;19.20;99.90;;;;;;4997435;28;20052;-76
2022/08/14 02:59:15;;;;;;;14.10;10.48;;;19.20;99.90;;;;;;4980448;28;20548;-76
2022/08/14 03:01:41;;;;;;;14.50;11.35;;;19.10;99.90;;;;;;4996594;28;20514;-77
2022/08/14 03:04:09;;;;;;;15.43;11.57;;;19.10;99.90;;;;;;4996195;28;20038;-77
2022/08/14 03:06:37;;;;;;;13.70;12.02;;;19.10;99.90;;;;;;5014115;28;20374;-77
2022/08/14 03:09:03;;;;;;;14.63;11.68;;;19.00;99.90;;;;;;5020334;28;20029;-77
2022/08/14 03:11:30;;;;;;;13.40;11.07;;;19.00;99.90;;;;;;4978326;28;20034;-77
2022/08/14 03:13:55;;;;;;;13.40;10.48;;;19.00;99.90;;;;;;4992128;28;20034;-76
2022/08/14 03:16:23;;;;;;;15.77;11.80;;;18.90;99.90;;;;;;5005222;28;20041;-76
2022/08/14 03:18:52;;;;;;;14.45;12.35;;;18.90;99.90;;;;;;4979357;28;20034;-76
2022/08/14 03:21:19;;;;;;;13.52;10.90;;;18.90;99.90;;;;;;4980019;28;20029;-77
2022/08/14 03:23:47;;;;;;;14.10;12.15;;;18.90;99.90;;;;;;5012377;28;20509;-77
2022/08/14 03:26:16;;;;;;;15.85;11.95;;;18.90;99.90;;;;;;4995545;28;20037;-76
2022/08/14 03:28:43;;;;;;;13.90;11.90;;;18.90;99.90;;;;;;4995159;28;20029;-76
2022/08/14 03:31:08;;;;;;;;;;;18.80;99.90;;;;;;5012068;28;20037;-77
2022/08/14 03:33:36;;;;;;;13.25;10.70;;;18.80;99.90;;;;;;4994586;28;19917;-76
2022/08/14 03:36:12;;;;;;;14.75;11.10;;;18.80;99.90;;;;;;5011235;28;20033;-76
2022/08/14 03:38:41;;;;;;;13.02;11.15;;;18.80;99.90;;;;;;4995136;28;20409;-77
2022/08/14 03:41:15;;;;;;;16.10;11.73;;;18.70;99.90;;;;;;5012702;28;20108;-77
2022/08/14 03:43:45;;;;;;;15.18;11.45;;;18.70;99.90;;;;;;4996627;28;20414;-77
2022/08/14 03:46:12;;;;;;;14.60;10.10;;;18.70;99.90;;;;;;5012537;28;20471;-77
2022/08/14 03:48:38;;;;;;;17.08;12.00;;;18.70;99.90;;;;;;5012737;28;20026;-77
2022/08/14 03:51:07;;;;;;;13.73;10.27;;;18.70;99.90;;;;;;4994983;28;20049;-77
2022/08/14 03:53:36;;;;;;;13.85;10.38;;;18.70;99.90;;;;;;4979650;28;20452;-77
2022/08/14 03:56:06;;;;;;;12.95;10.80;;;18.70;99.90;;;;;;5003045;28;20030;-77
2022/08/14 03:58:32;;;;;;;14.63;10.85;;;18.70;99.90;;;;;;4993109;28;20049;-77
2022/08/14 04:00:59;;;;;;;12.80;10.00;;;18.60;99.90;;;;;;4978341;28;20081;-77
2022/08/14 04:03:25;;;;;;;;;;;18.60;99.90;;;;;;4995111;28;20034;-77
2022/08/14 04:05:52;;;;;;;13.85;10.52;;;18.60;99.90;;;;;;5012348;28;19909;-77
2022/08/14 04:08:18;;;;;;;13.73;10.90;;;18.60;99.90;;;;;;5012019;28;20029;-78
2022/08/14 04:10:45;;;;;;;15.85;11.40;;;18.50;99.90;;;;;;4994837;28;20133;-78
2022/08/14 04:13:11;;;;;;;14.82;11.40;;;18.50;99.90;;;;;;5010583;28;20030;-77
2022/08/14 04:15:38;;;;;;;14.07;11.77;;;18.50;99.90;;;;;;4977594;28;20182;-77
2022/08/14 04:18:07;;;;;;;13.80;10.77;;;18.40;99.90;;;;;;4994313;28;20033;-77
2022/08/14 04:20:38;;;;;;;14.63;11.40;;;18.40;99.90;;;;;;4994597;28;20050;-77
2022/08/14 04:23:05;;;;;;;13.85;10.93;;;18.40;99.90;;;;;;4978812;28;20267;-77
2022/08/14 04:25:32;;;;;;;14.50;11.70;;;18.50;99.90;;;;;;4994577;28;20033;-76
2022/08/14 04:27:59;;;;;;;13.90;10.95;;;18.40;99.90;;;;;;4994367;28;20038;-78
2022/08/14 04:30:29;;;;;;;14.15;10.73;;;18.40;99.90;;;;;;4977353;28;20397;-77
2022/08/14 04:32:56;;;;;;;12.52;10.15;;;18.40;99.90;;;;;;5011531;28;20034;-77
2022/08/14 04:35:22;;;;;;;13.82;11.50;;;18.40;99.90;;;;;;4977703;28;20029;-77
2022/08/14 04:43:35;;;;;;;15.70;11.40;;;18.40;99.90;;;;;;4996500;28;20061;-77
2022/08/14 04:46:02;;;;;;;13.82;11.25;;;18.40;99.90;;;;;;4996404;28;20034;-77
2022/08/14 04:48:28;;;;;;;16.73;11.18;;;18.40;99.90;;;;;;4994061;28;20085;-77
2022/08/14 04:50:55;;;;;;;14.17;11.27;;;18.40;99.90;;;;;;5011630;28;20034;-77
2022/08/14 04:53:25;;;;;;;14.63;11.80;;;18.50;99.90;;;;;;4993604;28;20041;-77
2022/08/14 04:55:51;;;;;;;14.98;11.52;;;18.50;99.90;;;;;;4994164;28;20101;-78
2022/08/14 04:58:19;;;;;;;14.27;10.95;;;18.50;99.90;;;;;;4994162;28;20026;-77
2022/08/14 05:00:49;;;;;;;12.00;10.75;;;18.50;99.90;;;;;;4993688;28;20441;-77
2022/08/14 05:03:25;;;;;;;16.08;12.85;;;18.60;99.90;;;;;;4978971;28;20044;-77
2022/08/14 05:05:58;;;;;;;13.98;10.93;;;18.60;99.90;;;;;;4994439;28;20494;-77
2022/08/14 05:08:24;;;;;;;15.60;12.35;;;18.60;99.90;;;;;;4995211;28;20037;-77
2022/08/14 05:10:54;;;;;;;14.67;11.23;;;18.70;99.90;;;;;;4994207;28;20453;-77
2022/08/14 05:13:26;;;;;;;14.70;12.07;;;18.70;99.90;;;;;;4993909;28;20277;-77
2022/08/14 05:15:53;;;;;;;16.95;11.93;;;18.80;99.90;;;;;;4993626;28;20025;-78
2022/08/14 05:18:23;;;;;;;15.93;12.48;;;18.80;99.90;;;;;;4993477;28;20026;-78
2022/08/14 05:20:51;;;;;;;14.45;11.82;;;18.80;99.90;;;;;;4993909;28;20032;-77
2022/08/14 05:23:19;;;;;;;14.05;11.38;;;19.00;99.90;;;;;;4993743;28;20030;-77
2022/08/14 05:25:48;;;;;;;14.68;11.48;;;19.10;99.90;;;;;;4993886;28;20034;-77
2022/08/14 05:28:24;;;;;;;14.23;11.57;;;19.20;99.90;;;;;;4978401;28;20057;-78
2022/08/14 05:30:54;;;;;;;15.30;12.38;;;19.30;99.90;;;;;;5008850;28;20025;-78
2022/08/14 05:33:21;;;;;;;14.95;12.20;;;19.20;99.90;;;;;;4977664;28;20030;-77
2022/08/14 05:35:47;;;;;;;13.77;10.98;;;19.30;99.90;;;;;;4991016;28;20026;-77
2022/08/14 05:38:18;;;;;;;13.73;11.27;;;19.30;99.90;;;;;;4977328;28;20045;-77
2022/08/14 05:40:45;;;;;;;13.02;11.20;;;19.30;99.90;;;;;;4994404;28;20030;-78
2022/08/14 05:43:12;;;;;;;13.27;11.10;;;19.30;99.90;;;;;;5011159;28;20075;-78
2022/08/14 05:45:37;;;;;;;15.07;12.35;;;19.40;99.90;;;;;;4977271;28;20697;-75
2022/08/14 05:48:04;;;;;;;16.10;13.30;;;19.40;99.90;;;;;;5012923;28;20172;-75
2022/08/14 05:50:30;;;;;;;17.13;13.65;;;19.40;99.90;;;;;;4996573;28;20437;-75
2022/08/14 05:52:56;;;;;;;15.20;13.30;;;19.40;99.90;;;;;;4996536;28;20034;-75
2022/08/14 05:55:22;;;;;;;15.37;12.90;;;19.40;99.90;;;;;;4996440;28;20101;-75
2022/08/14 05:58:07;;;;;;;17.00;13.90;;;19.30;99.90;;;;;;4996601;28;20108;-75
2022/08/14 06:00:39;;;;;;;16.58;12.35;;;19.30;99.90;;;;;;4994978;28;20030;-75
2022/08/14 06:03:13;;;;;;;15.15;12.23;;;19.30;99.90;;;;;;4996349;28;20119;-74
2022/08/14 06:05:39;;;;;;;15.95;13.02;;;19.30;99.90;;;;;;5016541;28;20057;-75
2022/08/14 06:08:13;;;;;;;17.50;12.95;;;19.40;99.90;;;;;;4987396;28;20146;-75
2022/08/14 06:10:39;;;;;;;15.27;12.13;;;19.40;99.90;;;;;;5000587;28;20037;-74
2022/08/14 06:13:05;;;;;;;14.93;11.50;;;19.40;99.90;;;;;;5014368;28;20037;-74
2022/08/14 06:15:30;;;;;;;14.70;12.20;;;19.50;99.90;;;;;;5016901;28;20091;-74
2022/08/14 06:17:56;;;;;;;14.93;12.80;;;19.60;99.90;;;;;;5013384;28;20694;-73
2022/08/14 06:20:23;;;;;;;17.63;12.70;;;19.70;99.90;;;;;;5012937;28;20026;-73
2022/08/14 06:22:48;;;;;;;13.40;11.57;;;19.80;99.90;;;;;;5013305;28;20026;-74
2022/08/14 06:25:14;;;;;;;15.33;12.13;;;19.90;99.90;;;;;;5000056;28;20692;-73
2022/08/14 06:27:45;;;;;;;13.33;10.40;;;20.00;99.90;;;;;;4993917;28;20030;-74
2022/08/14 06:30:16;;;;;;;14.23;11.07;;;20.10;99.90;;;;;;4977951;28;20454;-74
2022/08/14 06:32:42;;;;;;;13.25;11.50;;;20.20;99.90;;;;;;4983884;28;20115;-74
2022/08/14 06:35:09;;;;;;;14.05;11.00;;;20.20;99.90;;;;;;5015979;28;20501;-74
2022/08/14 06:37:53;;;;;;;12.23;10.68;;;20.30;99.90;;;;;;5017911;28;20042;-74
2022/08/14 06:40:21;;;;;;;14.65;10.88;;;20.40;99.90;;;;;;4996526;28;20033;-74
2022/08/14 06:42:47;;;;;;;12.27;10.63;;;20.40;99.90;;;;;;4995902;28;20159;-74
2022/08/14 06:45:13;;;;;;;13.00;10.35;;;20.60;99.90;;;;;;5012111;28;20034;-74
2022/08/14 06:47:40;;;;;;;12.10;9.23;;;20.60;99.90;;;;;;5000283;28;20041;-73
2022/08/14 06:50:09;;;;;;;14.50;10.63;;;20.80;99.90;;;;;;4995053;28;20034;-74
2022/08/14 06:52:36;;;;;;;12.25;10.18;;;20.80;99.90;;;;;;5015047;28;20711;-73
2022/08/14 06:55:04;;;;;;;13.38;10.77;;;20.90;99.90;;;;;;5000196;28;20085;-74
2022/08/14 06:57:44;;;;;;;10.52;8.57;;;21.10;99.90;;;;;;4995891;28;20081;-74
2022/08/14 07:00:30;;;;;;;10.18;8.95;;;21.20;99.90;;;;;;5010310;28;20112;-74
2022/08/14 07:05:45;;;;;;;12.55;9.27;;;21.30;99.90;;;;;;4998001;28;20033;-73
2022/08/14 07:08:27;;;;;;;11.90;9.45;;;21.40;99.90;;;;;;5012793;28;20033;-74
2022/08/14 07:10:57;;;;;;;11.18;8.77;;;21.40;99.90;;;;;;4995034;28;20037;-74
2022/08/14 07:13:23;;;;;;;12.57;8.77;;;21.50;99.90;;;;;;5002006;28;20493;-74
2022/08/14 07:15:53;;;;;;;11.18;9.30;;;21.50;99.90;;;;;;5012640;28;20046;-74
2022/08/14 07:18:24;;;;;;;10.25;8.63;;;21.50;99.90;;;;;;5001971;28;20087;-74
2022/08/14 07:20:50;;;;;;;12.15;9.65;;;21.50;99.90;;;;;;4998062;28;20473;-74
2022/08/14 07:23:16;;;;;;;15.10;8.33;;;21.60;99.90;;;;;;5011086;28;20073;-74
2022/08/14 07:25:43;;;;;;;12.80;8.83;;;21.70;99.90;;;;;;5012398;28;20065;-74
2022/08/14 07:28:15;;;;;;;9.93;8.82;;;21.80;99.90;;;;;;5010959;28;20473;-73
2022/08/14 07:30:41;;;;;;;9.75;8.45;;;21.80;99.90;;;;;;5011201;28;20033;-73
2022/08/14 07:33:07;;;;;;;11.52;9.70;;;21.90;99.90;;;;;;5010685;28;20038;-73
2022/08/14 07:35:33;;;;;;;10.80;9.52;;;22.00;99.90;;;;;;5010942;28;20100;-73
2022/08/14 07:37:59;;;;;;;10.80;9.15;;;22.00;99.90;;;;;;5010076;28;20033;-73
2022/08/14 07:40:25;;;;;;;9.33;7.17;;;22.10;99.90;;;;;;5011890;28;20030;-74
2022/08/14 07:42:51;;;;;;;9.13;7.32;;;22.20;99.90;;;;;;4991528;28;20088;-74
2022/08/14 07:45:17;;;;;;;9.90;6.85;;;22.30;99.90;;;;;;5011987;28;20030;-74
2022/08/14 07:47:43;;;;;;;8.88;7.85;;;22.40;99.90;;;;;;4994448;28;20036;-74
2022/08/14 07:50:17;;;;;;;10.30;7.33;;;22.60;99.90;;;;;;5011702;28;20111;-73
2022/08/14 07:52:44;;;;;;;12.27;6.90;;;22.80;99.90;;;;;;4972846;28;20034;-79
2022/08/14 07:55:11;;;;;;;10.57;7.50;;;22.90;99.90;;;;;;4984052;28;20030;-72
2022/08/14 07:57:41;;;;;;;13.30;6.35;;;23.10;99.90;;;;;;5017916;28;20121;-77
2022/08/14 08:00:12;;;;;;;10.20;6.88;;;23.20;99.90;;;;;;5011037;28;20030;-72
2022/08/14 08:02:44;;;;;;;8.15;6.32;;;23.40;99.90;;;;;;4987833;28;20034;-72
2022/08/14 08:05:11;;;;;;;8.48;6.30;;;23.50;99.90;;;;;;4996949;28;20052;-73
2022/08/14 08:07:37;;;;;;;;;;;23.60;99.90;;;;;;4994189;28;20037;-72
2022/08/14 08:10:29;;;;;;;8.05;6.18;;;23.70;99.90;;;;;;5014794;28;19914;-72
2022/08/14 08:12:54;;;;;;;6.50;5.75;;;23.80;99.90;;;;;;4998231;28;20049;-72
2022/08/14 08:15:20;;;;;;;10.02;6.15;;;23.90;99.90;;;;;;5016440;28;20033;-72
2022/08/14 08:17:46;;;;;;;7.65;6.38;;;23.90;99.90;;;;;;4994297;28;20029;-72
2022/08/14 08:20:14;;;;;;;;;;;24.00;99.90;;;;;;5007823;28;20076;-72
2022/08/14 08:22:41;;;;;;;7.57;5.88;;;24.00;99.90;;;;;;4994617;28;19917;-72
2022/08/14 08:25:08;;;;;;;6.68;5.90;;;24.10;99.90;;;;;;5008930;28;20133;-73
2022/08/14 08:27:34;;;;;;;5.93;5.03;;;24.20;99.90;;;;;;5013180;28;20061;-72
2022/08/14 08:30:10;;;;;;;8.50;6.13;;;24.30;99.90;;;;;;4995464;28;20457;-70
2022/08/14 08:32:44;;;;;;;7.53;6.30;;;24.40;99.90;;;;;;5009826;28;20301;-72
2022/08/14 08:35:17;;;;;;;8.05;5.85;;;24.50;99.90;;;;;;5011185;28;20068;-74
2022/08/14 08:37:43;;;;;;;7.38;5.70;;;24.50;99.90;;;;;;5009467;28;20053;-74
2022/08/14 08:40:09;;;;;;;8.30;5.93;;;24.60;99.90;;;;;;4997655;28;20061;-74
2022/08/14 08:42:35;;;;;;;;;;;24.70;99.90;;;;;;4991964;28;20038;-74
2022/08/14 08:45:01;;;;;;;5.15;4.65;;;24.80;99.90;;;;;;4991372;28;19920;-74
2022/08/14 08:47:40;;;;;;;5.63;4.77;;;24.80;99.90;;;;;;4991163;28;20112;-74
2022/08/14 08:50:23;;;;;;;8.10;4.70;;;24.90;99.90;;;;;;4958714;28;20360;-74
2022/08/14 08:52:50;;;;;;;5.13;4.07;;;25.00;99.90;;;;;;4959253;28;20037;-74
2022/08/14 08:55:40;;;;;;;7.03;4.85;;;25.00;99.90;;;;;;4974197;28;20022;-74
2022/08/14 08:58:15;;;;;;;4.57;4.07;;;25.10;99.90;;;;;;4961860;28;20034;-74
2022/08/14 09:00:41;;;;;;;5.78;5.18;;;25.20;99.90;;;;;;4958127;28;20088;-74
2022/08/14 09:03:08;;;;;;;6.93;5.90;;;25.30;99.90;;;;;;5001594;28;20030;-74
2022/08/14 09:05:37;;;;;;;5.82;5.13;;;25.30;99.90;;;;;;4993721;28;20042;-74
2022/08/14 09:08:18;;;;;;;5.57;4.78;;;25.30;99.90;;;;;;4993399;28;20032;-74
2022/08/14 09:10:44;;;;;;;7.78;5.50;;;25.40;99.90;;;;;;5011164;28;20033;-74
2022/08/14 09:13:11;;;;;;;6.65;5.30;;;25.40;99.90;;;;;;5010658;28;20052;-74
2022/08/14 09:15:42;;;;;;;6.70;5.38;;;25.50;99.90;;;;;;5009117;28;20026;-73
2022/08/14 09:18:08;;;;;;;7.68;4.60;;;25.60;99.90;;;;;;5010866;28;20037;-73
2022/08/14 09:20:37;;;;;;;6.30;5.15;;;25.70;99.90;;;;;;5013687;28;20030;-73
2022/08/14 09:23:03;;;;;;;5.45;4.90;;;25.80;99.90;;;;;;4974533;28;20034;-74
2022/08/14 09:25:29;;;;;;;;;;;25.80;99.90;;;;;;5019814;28;20026;-73
2022/08/14 09:27:55;;;;;;;6.57;5.22;;;25.90;99.90;;;;;;5014940;28;19968;-73
2022/08/14 09:30:21;;;;;;;6.22;5.38;;;25.90;99.90;;;;;;5014426;28;20033;-73
2022/08/14 09:33:02;;;;;;;7.93;5.25;;;26.00;99.90;;;;;;5018889;28;20042;-73
2022/08/14 09:35:52;;;;;;;5.80;5.20;;;26.00;99.90;;;;;;5015564;28;20084;-73
2022/08/14 09:38:36;;;;;;;6.75;5.30;;;26.00;99.90;;;;;;4985800;28;20031;-73
2022/08/14 09:41:33;;;;;;;6.80;4.63;;;26.00;99.90;;;;;;5013715;28;20030;-73
2022/08/14 09:44:44;;;;;;;9.07;6.45;;;26.10;99.90;;;;;;5013953;28;20049;-73
2022/08/14 09:47:10;;;;;;;6.28;4.32;;;26.10;99.90;;;;;;5003058;28;20084;-73
2022/08/14 09:49:37;;;;;;;6.22;5.10;;;26.20;99.90;;;;;;5014364;28;20030;-73
2022/08/14 09:52:11;;;;;;;6.43;5.43;;;26.30;99.50;;;;;;4996538;28;20538;-73
2022/08/14 09:54:45;;;;;;;7.85;5.53;;;26.40;99.90;;;;;;4996520;28;20030;-73
2022/08/14 09:57:23;;;;;;;8.65;5.38;;;26.40;99.90;;;;;;4995899;28;20026;-74
2022/08/14 09:59:50;;;;;;;6.13;5.30;;;26.40;99.90;;;;;;4996516;28;20594;-73
2022/08/14 10:02:36;;;;;;;6.95;5.60;;;26.40;99.50;;;;;;5012214;28;20481;-73
2022/08/14 10:05:10;;;;;;;5.85;5.10;;;26.40;98.70;;;;;;5013203;28;20500;-73
2022/08/14 10:07:56;;;;;;;7.07;5.07;;;26.50;98.90;;;;;;4996029;28;20441;-73
2022/08/14 10:10:37;;;;;;;9.05;5.13;;;26.50;97.10;;;;;;4995362;28;20080;-73
2022/08/14 10:13:07;;;;;;;6.88;5.25;;;26.60;97.40;;;;;;5013409;28;20061;-73
2022/08/14 10:15:37;;;;;;;6.30;4.82;;;26.70;96.60;;;;;;4996870;28;20025;-73
2022/08/14 10:18:14;;;;;;;6.20;4.72;;;26.80;96.50;;;;;;5012990;28;20072;-73
2022/08/14 10:20:56;;;;;;;7.10;5.45;;;26.80;96.10;;;;;;4997609;28;20034;-73
2022/08/14 10:23:23;;;;;;;6.43;5.18;;;27.00;94.80;;;;;;5013256;28;20112;-73
2022/08/14 10:26:06;;;;;;;7.28;5.95;;;27.20;94.40;;;;;;4996092;28;20029;-73
2022/08/14 10:28:46;;;;;;;8.07;6.13;;;27.30;94.00;;;;;;4995911;28;20034;-74
2022/08/14 10:31:36;;;;;;;8.00;5.72;;;27.30;94.20;;;;;;4996372;28;20388;-73
2022/08/14 10:34:09;;;;;;;7.50;5.55;;;27.30;94.30;;;;;;4995395;28;20026;-73
2022/08/14 10:36:42;;;;;;;5.35;4.82;;;27.30;94.80;;;;;;4993736;28;20035;-73
2022/08/14 10:39:15;;;;;;;7.28;5.68;;;27.30;94.30;;;;;;4992207;28;20101;-73
2022/08/14 10:41:42;;;;;;;6.35;5.60;;;27.30;95.80;;;;;;4993720;28;20092;-73
2022/08/14 10:44:15;;;;;;;6.90;6.13;;;27.40;96.50;;;;;;5008000;28;20041;-73
2022/08/14 10:46:46;;;;;;;8.00;6.15;;;27.60;95.50;;;;;;5008411;28;20034;-73
2022/08/14 10:49:23;;;;;;;7.30;5.72;;;27.80;95.40;;;;;;4993182;28;20038;-73
2022/08/14 10:52:03;;;;;;;7.55;5.50;;;27.90;94.60;;;;;;5008407;28;20030;-73
2022/08/14 10:54:31;;;;;;;7.90;5.72;;;28.00;92.80;;;;;;4993010;28;20034;-74
2022/08/14 10:57:10;;;;;;;7.15;6.28;;;28.10;92.70;;;;;;5008351;28;20106;-73
2022/08/14 10:59:48;;;;;;;7.85;5.90;;;28.00;93.10;;;;;;5008343;28;20018;-74
2022/08/14 11:02:29;;;;;;;8.65;5.35;;;28.00;93.00;;;;;;5009792;28;20022;-74
2022/08/14 11:05:02;;;;;;;4.93;4.50;;;28.00;93.50;;;;;;5012519;28;20026;-73
2022/08/14 11:07:28;;;;;;;5.82;5.03;;;28.20;91.80;;;;;;4995877;28;20033;-73
2022/08/14 11:09:59;;;;;;;;;;;28.30;90.60;;;;;;5013183;28;20036;-73
2022/08/14 11:12:25;;;;;;;7.00;5.40;;;28.40;90.10;;;;;;4994979;28;20002;-73
2022/08/14 11:14:58;;;;;;;6.50;5.80;;;28.50;90.90;;;;;;5012390;28;20036;-74
2022/08/14 11:17:27;;;;;;;6.13;5.35;;;28.70;90.40;;;;;;5012090;28;20026;-73
2022/08/14 11:19:57;;;;;;;7.05;5.95;;;28.90;89.30;;;;;;5012660;28;20026;-74
2022/08/14 11:22:28;;;;;;;8.32;5.97;;;28.90;87.20;;;;;;4995199;28;20391;-73
2022/08/14 11:24:55;;;;;;;8.52;5.75;;;28.70;85.70;;;;;;4979057;28;20030;-73
2022/08/14 11:27:21;;;;;;;9.05;6.45;;;28.70;86.40;;;;;;5010962;28;20034;-73
2022/08/14 11:29:48;;;;;;;8.25;6.68;;;28.60;86.50;;;;;;4994890;28;20030;-74
2022/08/14 11:32:14;;;;;;;6.85;6.15;;;28.40;87.50;;;;;;4994340;28;20030;-74
2022/08/14 11:34:40;;;;;;;8.15;6.40;;;28.30;86.40;;;;;;5011873;28;20034;-73
2022/08/14 11:37:10;;;;;;;6.53;5.72;;;28.40;88.40;;;;;;4994828;28;20033;-74
2022/08/14 11:39:36;;;;;;;6.85;6.13;;;28.40;87.20;;;;;;4994801;28;20109;-74
2022/08/14 11:42:03;;;;;;;7.60;6.50;;;28.60;87.30;;;;;;5012203;28;20113;-73
2022/08/14 11:44:29;;;;;;;7.15;6.32;;;28.90;85.20;;;;;;4994137;28;20496;-73
2022/08/14 11:46:55;;;;;;;6.63;5.60;;;29.00;82.90;;;;;;5012128;28;20034;-74
2022/08/14 11:49:32;;;;;;;8.85;7.28;;;28.80;81.40;;;;;;4994268;28;20038;-74
2022/08/14 11:51:58;;;;;;;;;;;28.70;83.70;;;;;;5012544;28;20066;-74
2022/08/14 11:54:24;;;;;;;9.02;6.80;;;28.70;81.70;;;;;;5011296;28;20016;-74
2022/08/14 11:56:51;;;;;;;;;;;28.60;84.90;;;;;;4994575;28;20033;-74
2022/08/14 11:59:21;;;;;;;7.45;5.78;;;28.70;83.90;;;;;;5011888;28;19914;-74
2022/08/14 12:01:47;;;;;;;8.77;5.80;;;29.00;83.20;;;;;;4978997;28;20040;-74
2022/08/14 12:04:17;;;;;;;;;;;29.30;78.60;;;;;;4994151;28;20032;-74
2022/08/14 12:06:54;;;;;;;7.65;5.85;;;29.40;78.20;;;;;;5010837;28;19909;-74
2022/08/14 12:09:36;;;;;;;7.80;6.38;;;29.40;75.90;;;;;;5011489;28;20033;-74
2022/08/14 12:12:20;;;;;;;8.38;6.60;;;29.40;78.40;;;;;;4994098;28;20034;-74
2022/08/14 12:14:58;;;;;;;10.07;6.32;;;29.20;76.10;;;;;;5009004;28;20441;-73
2022/08/14 12:17:30;;;;;;;8.63;6.50;;;29.20;76.30;;;;;;4993046;28;20643;-75
2022/08/14 12:19:58;;;;;;;8.43;6.38;;;29.20;77.70;;;;;;4992661;28;20026;-81
2022/08/14 12:22:37;;;;;;;7.60;6.35;;;29.30;75.30;;;;;;4978975;28;20023;-76
2022/08/14 12:25:06;;;;;;;6.95;5.72;;;29.10;74.40;;;;;;4998785;28;20486;-72
2022/08/14 12:27:48;;;;;;;7.13;6.13;;;29.00;74.00;;;;;;4993652;28;20053;-72
2022/08/14 12:30:38;;;;;;;6.55;5.93;;;28.90;75.90;;;;;;4995062;28;20030;-78
2022/08/14 12:33:07;;;;;;;7.45;6.40;;;29.10;81.40;;;;;;4977170;28;20087;-76
2022/08/14 12:35:42;;;;;;;6.38;5.38;;;29.50;81.60;;;;;;4981751;28;20514;-83
2022/08/14 12:38:09;;;;;;;6.60;5.97;;;29.80;76.90;;;;;;5023419;28;20062;-80
2022/08/14 12:40:46;;;;;;;8.15;5.65;;;30.30;72.90;;;;;;4993202;28;20026;-80
2022/08/14 12:43:14;;;;;;;6.43;5.80;;;30.40;71.80;;;;;;4994940;28;20060;-74
2022/08/14 12:45:41;;;;;;;6.43;5.50;;;30.60;72.10;;;;;;5011406;28;20113;-75
2022/08/14 12:48:06;;;;;;;7.63;5.80;;;30.60;71.70;;;;;;4977253;28;20037;-75
2022/08/14 12:50:38;;;;;;;6.78;5.15;;;30.60;72.10;;;;;;4993425;28;20080;-74
2022/08/14 12:53:04;;;;;;;8.02;5.57;;;30.90;72.30;;;;;;5011291;28;20036;-75
2022/08/14 12:55:33;;;;;;;7.10;6.07;;;31.30;65.60;;;;;;4986546;28;20034;-74
2022/08/14 12:58:01;;;;;;;6.18;4.90;;;31.70;66.00;;;;;;5017387;28;20408;-74
2022/08/14 13:00:26;;;;;;;6.78;5.50;;;32.40;64.20;;;;;;4992590;28;20451;-74
2022/08/14 13:02:53;;;;;;;6.07;5.20;;;33.00;61.10;;;;;;5014192;28;20037;-74
2022/08/14 13:05:37;;;;;;;6.38;5.35;;;33.10;59.00;;;;;;5016696;28;20037;-73